Time;durP1;ratioP1;P1;durP2;ratioP2;P2;SDS_P1;SDS_P2;PMS_P1;PMS_P2;Temp;Humidity;BMP_temperature;BMP_pressure;BME280_temperature;BME280_humidity;BME280_pressure;Samples;Min_cycle;Max_cycle;Signal;HPM_P1;HPM_P2
2022/10/26 00:01:55;;;;;;;;;;;;;;;13.22;100.00;98154.84;5055334;28;20016;-67
2022/10/26 00:04:22;;;;;;;;;;;;;;;13.03;100.00;98166.44;5058443;28;19964;-66
2022/10/26 00:06:49;;;;;;;;;;;;;;;12.94;100.00;98168.84;5058419;28;19932;-66
2022/10/26 00:09:16;;;;;;;;;;;;;;;13.05;100.00;98158.91;5056200;28;20014;-66
2022/10/26 00:11:42;;;;;;;;;;;;;;;13.18;100.00;98163.72;5055272;28;19964;-67
2022/10/26 00:14:08;;;;;;;;;;;;;;;13.29;100.00;98160.72;5056106;28;19960;-66
2022/10/26 00:16:35;;;;;;;;;;;;;;;13.40;100.00;98164.19;5061921;28;19925;-67
2022/10/26 00:19:01;;;;;;;;;;;;;;;13.44;100.00;98159.84;5061111;28;20381;-67
2022/10/26 00:21:27;;;;;;;;;;;;;;;13.48;100.00;98156.38;5059400;28;19925;-66
2022/10/26 00:23:55;;;;;;;;;;;;;;;13.44;100.00;98162.53;5044421;28;19985;-67
2022/10/26 00:26:21;;;;;;;;;;;;;;;13.40;100.00;98167.66;5068509;28;19912;-67
2022/10/26 00:28:48;;;;;;;;;;;;;;;13.48;100.00;98160.91;5067015;28;20000;-67
2022/10/26 00:31:16;;;;;;;;;;;;;;;13.19;100.00;98154.59;5065724;28;19920;-67
2022/10/26 00:33:42;;;;;;;;;;;;;;;13.06;100.00;98155.16;5063193;28;19929;-68
2022/10/26 00:36:09;;;;;;;;;;;;;;;13.10;100.00;98161.59;5061381;28;19925;-67
2022/10/26 00:38:35;;;;;;;;;;;;;;;13.17;100.00;98160.25;5064403;28;19925;-67
2022/10/26 00:41:03;;;;;;;;;;;;;;;13.23;100.00;98158.34;5063869;28;19956;-67
2022/10/26 00:43:37;;;;;;;;;;;;;;;13.25;100.00;98161.53;5060727;28;19979;-66
2022/10/26 00:46:05;;;;;;;;;;;;;;;13.26;100.00;98168.53;5061535;28;19936;-69
2022/10/26 00:48:34;;;;;;;;;;;;;;;13.05;100.00;98169.63;5063479;28;19956;-67
2022/10/26 00:51:02;;;;;;;;;;;;;;;12.90;100.00;98163.22;5061803;28;19973;-67
2022/10/26 00:53:29;;;;;;;;;;;;;;;12.82;100.00;98163.78;5043498;28;19996;-67
2022/10/26 00:55:56;;;;;;;;;;;;;;;12.68;100.00;98148.53;5061497;28;19925;-67
2022/10/26 00:58:25;;;;;;;;;;;;;;;12.79;100.00;98145.56;5064481;28;19941;-67
2022/10/26 01:00:51;;;;;;;;;;;;;;;12.95;100.00;98154.38;5062822;28;19987;-67
2022/10/26 01:03:18;;;;;;;;;;;;;;;13.09;100.00;98149.28;5058582;28;20063;-67
2022/10/26 01:05:45;;;;;;;;;;;;;;;13.17;100.00;98141.47;5057948;28;19929;-67
2022/10/26 01:08:12;;;;;;;;;;;;;;;13.25;100.00;98140.06;5059340;28;20005;-67
2022/10/26 01:10:40;;;;;;;;;;;;;;;13.32;100.00;98135.22;5061088;28;19925;-67
2022/10/26 01:13:06;;;;;;;;;;;;;;;13.25;100.00;98119.44;5059446;28;19925;-67
2022/10/26 01:15:39;;;;;;;;;;;;;;;13.18;100.00;98120.81;5057476;28;20007;-68
2022/10/26 01:18:10;;;;;;;;;;;;;;;13.20;100.00;98126.69;5058135;28;19963;-67
2022/10/26 01:21:00;;;;;;;;;;;;;;;13.24;100.00;98122.41;5061060;28;20493;-67
2022/10/26 01:23:33;;;;;;;;;;;;;;;13.31;100.00;98123.69;5034360;28;19921;-67
2022/10/26 01:26:19;;;;;;;;;;;;;;;13.34;100.00;98122.34;5056714;28;19925;-67
2022/10/26 01:28:56;;;;;;;;;;;;;;;13.41;100.00;98125.53;5065797;28;19988;-67
2022/10/26 01:31:28;;;;;;;;;;;;;;;13.41;100.00;98128.22;5057715;28;19948;-67
2022/10/26 01:33:57;;;;;;;;;;;;;;;13.43;100.00;98128.75;5057839;28;19947;-66
2022/10/26 01:36:30;;;;;;;;;;;;;;;13.43;100.00;98129.53;5050248;28;19921;-66
2022/10/26 01:39:00;;;;;;;;;;;;;;;13.38;100.00;98126.88;5057789;28;19968;-66
2022/10/26 01:41:28;;;;;;;;;;;;;;;13.37;100.00;98124.47;5049752;28;20027;-67
2022/10/26 01:43:56;;;;;;;;;;;;;;;13.38;100.00;98126.09;5056392;28;19931;-67
2022/10/26 01:46:24;;;;;;;;;;;;;;;13.32;100.00;98119.13;5060653;28;19988;-67
2022/10/26 01:48:54;;;;;;;;;;;;;;;13.16;100.00;98123.75;5060940;28;20023;-66
2022/10/26 01:51:22;;;;;;;;;;;;;;;13.08;100.00;98124.34;5057686;28;19971;-67
2022/10/26 01:53:49;;;;;;;;;;;;;;;12.94;100.00;98108.00;5042004;28;20579;-67
2022/10/26 01:56:19;;;;;;;;;;;;;;;12.82;100.00;98112.03;5058589;28;19952;-67
2022/10/26 01:59:16;;;;;;;;;;;;;;;12.82;100.00;98101.31;5060687;28;19971;-67
2022/10/26 02:01:50;;;;;;;;;;;;;;;12.89;100.00;98102.66;5080900;28;19935;-67
2022/10/26 02:04:25;;;;;;;;;;;;;;;12.96;100.00;98111.22;5069439;28;19931;-67
2022/10/26 02:06:56;;;;;;;;;;;;;;;13.07;100.00;98108.47;5060405;28;19968;-66
2022/10/26 02:09:28;;;;;;;;;;;;;;;13.15;100.00;98106.06;5057060;28;19929;-67
2022/10/26 02:11:55;;;;;;;;;;;;;;;12.79;100.00;98100.00;5056737;28;19978;-66
2022/10/26 02:14:26;;;;;;;;;;;;;;;12.77;100.00;98107.50;5059900;28;19984;-66
2022/10/26 02:16:54;;;;;;;;;;;;;;;12.68;100.00;98087.72;5060052;28;19925;-67
2022/10/26 02:19:32;;;;;;;;;;;;;;;12.53;100.00;98077.03;5057031;28;20415;-67
2022/10/26 02:22:02;;;;;;;;;;;;;;;12.58;100.00;98068.97;5056522;28;19950;-66
2022/10/26 02:24:30;;;;;;;;;;;;;;;12.77;100.00;98085.25;5044939;28;19929;-66
2022/10/26 02:26:57;;;;;;;;;;;;;;;12.88;100.00;98101.03;5059865;28;19945;-67
2022/10/26 02:29:25;;;;;;;;;;;;;;;12.94;100.00;98125.94;5048371;28;19927;-67
2022/10/26 02:31:51;;;;;;;;;;;;;;;13.00;100.00;98133.69;5056715;28;19926;-67
2022/10/26 02:34:20;;;;;;;;;;;;;;;13.09;100.00;98139.31;5058995;28;19977;-68
2022/10/26 02:36:50;;;;;;;;;;;;;;;13.15;100.00;98148.97;5059515;28;19931;-67
2022/10/26 02:39:17;;;;;;;;;;;;;;;13.15;100.00;98137.47;5057152;28;19932;-66
2022/10/26 02:41:45;;;;;;;;;;;;;;;13.21;100.00;98137.16;5056175;28;19984;-68
2022/10/26 02:44:14;;;;;;;;;;;;;;;13.23;100.00;98134.19;5057930;28;19935;-67
2022/10/26 02:46:41;;;;;;;;;;;;;;;13.28;100.00;98137.66;5059464;28;19932;-67
2022/10/26 02:49:07;;;;;;;;;;;;;;;13.15;100.00;98132.09;5058149;28;20008;-67
2022/10/26 02:51:37;;;;;;;;;;;;;;;12.98;100.00;98127.00;5055950;28;19996;-67
2022/10/26 02:54:11;;;;;;;;;;;;;;;13.07;100.00;98121.88;5041191;28;19992;-67
2022/10/26 02:56:42;;;;;;;;;;;;;;;13.17;100.00;98113.84;5059508;28;19960;-67
2022/10/26 02:59:10;;;;;;;;;;;;;;;13.17;100.00;98111.16;5058106;28;19960;-67
2022/10/26 03:01:37;;;;;;;;;;;;;;;13.13;100.00;98110.09;5056109;28;19946;-67
2022/10/26 03:04:03;;;;;;;;;;;;;;;13.09;100.00;98114.41;5056654;28;19964;-67
2022/10/26 03:06:29;;;;;;;;;;;;;;;12.96;100.00;98103.19;5059308;28;19968;-68
2022/10/26 03:08:56;;;;;;;;;;;;;;;12.93;100.00;98103.72;5059013;28;20512;-67
2022/10/26 03:11:24;;;;;;;;;;;;;;;12.99;100.00;98101.81;5055585;28;19936;-67
2022/10/26 03:13:50;;;;;;;;;;;;;;;13.04;100.00;98106.34;5055565;28;20048;-67
2022/10/26 03:16:17;;;;;;;;;;;;;;;13.02;100.00;98098.59;5058140;28;19925;-66
2022/10/26 03:18:43;;;;;;;;;;;;;;;13.05;100.00;98106.09;5059092;28;19925;-67
2022/10/26 03:21:09;;;;;;;;;;;;;;;13.01;100.00;98107.69;5057405;28;19932;-67
2022/10/26 03:23:36;;;;;;;;;;;;;;;13.05;100.00;98106.09;5040115;28;19925;-67
2022/10/26 03:26:02;;;;;;;;;;;;;;;13.14;100.00;98109.03;5055940;28;20051;-67
2022/10/26 03:28:30;;;;;;;;;;;;;;;13.04;100.00;98115.19;5058889;28;20012;-67
2022/10/26 03:30:56;;;;;;;;;;;;;;;12.75;100.00;98109.63;5059022;28;19921;-67
2022/10/26 03:33:22;;;;;;;;;;;;;;;12.53;100.00;98125.25;5055435;28;20410;-67
2022/10/26 03:35:53;;;;;;;;;;;;;;;12.54;100.00;98121.47;5055442;28;19936;-67
2022/10/26 03:38:20;;;;;;;;;;;;;;;12.65;100.00;98125.75;5058426;28;19925;-67
2022/10/26 03:40:47;;;;;;;;;;;;;;;12.73;100.00;98130.56;5058775;28;20133;-66
2022/10/26 03:43:13;;;;;;;;;;;;;;;12.73;100.00;98109.13;5056718;28;20447;-67
2022/10/26 03:45:41;;;;;;;;;;;;;;;12.47;100.00;98114.81;5055370;28;19925;-66
2022/10/26 03:48:07;;;;;;;;;;;;;;;12.35;100.00;98123.09;5056065;28;19968;-67
2022/10/26 03:50:34;;;;;;;;;;;;;;;12.41;100.00;98128.19;5058242;28;19933;-67
2022/10/26 03:53:00;;;;;;;;;;;;;;;12.39;100.00;98127.66;5042583;28;19960;-67
2022/10/26 03:55:26;;;;;;;;;;;;;;;12.40;100.00;98131.97;5055319;28;19928;-67
2022/10/26 03:57:53;;;;;;;;;;;;;;;12.15;100.00;98129.28;5054925;28;19971;-66
2022/10/26 04:00:19;;;;;;;;;;;;;;;12.06;100.00;98116.69;5058135;28;19989;-67
2022/10/26 04:02:54;;;;;;;;;;;;;;;12.01;100.00;98112.13;5058121;28;19956;-67
2022/10/26 04:05:21;;;;;;;;;;;;;;;12.01;100.00;98116.69;5087310;28;19925;-67
2022/10/26 04:07:51;;;;;;;;;;;;;;;12.00;100.00;98118.56;5054664;28;19932;-67
2022/10/26 04:10:17;;;;;;;;;;;;;;;12.00;100.00;98123.91;5057453;28;19964;-66
2022/10/26 04:12:44;;;;;;;;;;;;;;;12.02;100.00;98118.28;5058258;28;19931;-66
2022/10/26 04:15:10;;;;;;;;;;;;;;;11.88;100.00;98121.47;5056691;28;19999;-66
2022/10/26 04:17:37;;;;;;;;;;;;;;;11.89;100.00;98119.59;5054863;28;19959;-66
2022/10/26 04:20:05;;;;;;;;;;;;;;;11.84;100.00;98123.09;5055081;28;19960;-67
2022/10/26 04:22:31;;;;;;;;;;;;;;;11.77;100.00;98125.22;5049620;28;19929;-67
2022/10/26 04:24:58;;;;;;;;;;;;;;;11.82;100.00;98133.25;5051264;28;19940;-67
2022/10/26 04:27:24;;;;;;;;;;;;;;;11.96;100.00;98130.88;5046711;28;19925;-67
2022/10/26 04:29:51;;;;;;;;;;;;;;;12.09;100.00;98138.38;5054668;28;19993;-67
2022/10/26 04:32:17;;;;;;;;;;;;;;;12.24;100.00;98138.38;5056136;28;19967;-68
2022/10/26 04:34:43;;;;;;;;;;;;;;;12.28;100.00;98139.47;5058183;28;19929;-66
2022/10/26 04:37:11;;;;;;;;;;;;;;;12.26;100.00;98143.44;5056762;28;19956;-66
2022/10/26 04:39:37;;;;;;;;;;;;;;;12.26;100.00;98148.81;5054640;28;19989;-67
2022/10/26 04:42:03;;;;;;;;;;;;;;;12.33;100.00;98154.72;5055382;28;19925;-66
2022/10/26 04:44:30;;;;;;;;;;;;;;;12.29;100.00;98146.41;5058287;28;19987;-67
2022/10/26 04:46:56;;;;;;;;;;;;;;;12.20;100.00;98148.00;5058043;28;20019;-66
2022/10/26 04:49:22;;;;;;;;;;;;;;;12.26;100.00;98140.78;5054867;28;20015;-67
2022/10/26 04:51:49;;;;;;;;;;;;;;;12.20;100.00;98147.19;5055141;28;19993;-67
2022/10/26 04:54:16;;;;;;;;;;;;;;;12.21;100.00;98144.28;5041339;28;19987;-66
2022/10/26 04:56:43;;;;;;;;;;;;;;;12.08;100.00;98133.28;5058669;28;19967;-67
2022/10/26 04:59:10;;;;;;;;;;;;;;;11.95;100.00;98149.84;5058044;28;19921;-67
2022/10/26 05:01:36;;;;;;;;;;;;;;;11.89;100.00;98155.22;5059886;28;19913;-67
2022/10/26 05:04:02;;;;;;;;;;;;;;;11.89;100.00;98154.41;5063105;28;19971;-66
2022/10/26 05:06:29;;;;;;;;;;;;;;;11.88;100.00;98158.16;5066479;28;19950;-67
2022/10/26 05:08:55;;;;;;;;;;;;;;;11.85;100.00;98162.16;5065747;28;20335;-67
2022/10/26 05:11:23;;;;;;;;;;;;;;;11.93;100.00;98168.88;5063094;28;19921;-66
2022/10/26 05:13:49;;;;;;;;;;;;;;;11.88;100.00;98160.84;5063054;28;19934;-66
2022/10/26 05:16:16;;;;;;;;;;;;;;;11.86;100.00;98158.41;5064907;28;19952;-67
2022/10/26 05:18:42;;;;;;;;;;;;;;;11.83;100.00;98155.47;5063091;28;19988;-67
2022/10/26 05:21:09;;;;;;;;;;;;;;;11.81;100.00;98147.72;5060559;28;19932;-66
2022/10/26 05:23:35;;;;;;;;;;;;;;;11.80;100.00;98148.75;5047824;28;19925;-66
2022/10/26 05:26:01;;;;;;;;;;;;;;;11.80;100.00;98150.63;5057627;28;20032;-66
2022/10/26 05:28:29;;;;;;;;;;;;;;;11.79;100.00;98160.53;5060476;28;19924;-67
2022/10/26 05:30:58;;;;;;;;;;;;;;;11.81;100.00;98168.31;5060400;28;19925;-67
2022/10/26 05:33:24;;;;;;;;;;;;;;;11.87;100.00;98164.56;5049111;28;20004;-66
2022/10/26 05:35:53;;;;;;;;;;;;;;;11.87;100.00;98176.09;5056797;28;20465;-67
2022/10/26 05:38:20;;;;;;;;;;;;;;;11.86;100.00;98177.16;5059566;28;19955;-67
2022/10/26 05:40:46;;;;;;;;;;;;;;;11.84;100.00;98171.25;5059086;28;19951;-67
2022/10/26 05:43:13;;;;;;;;;;;;;;;11.89;100.00;98175.81;5057787;28;19931;-68
2022/10/26 05:45:40;;;;;;;;;;;;;;;11.93;100.00;98184.94;5056707;28;19992;-68
2022/10/26 05:48:07;;;;;;;;;;;;;;;11.89;100.00;98181.16;5057754;28;19960;-67
2022/10/26 05:50:33;;;;;;;;;;;;;;;11.91;100.00;98187.06;5060328;28;19924;-68
2022/10/26 05:53:00;;;;;;;;;;;;;;;11.98;100.00;98192.13;5076534;28;19929;-67
2022/10/26 05:55:26;;;;;;;;;;;;;;;11.95;100.00;98182.78;5056727;28;19953;-67
2022/10/26 05:57:53;;;;;;;;;;;;;;;11.98;100.00;98197.50;5056845;28;19997;-67
2022/10/26 06:00:20;;;;;;;;;;;;;;;12.00;100.00;98206.09;5058714;28;19929;-66
2022/10/26 06:03:00;;;;;;;;;;;;;;;12.00;100.00;98201.53;5060085;28;19973;-66
2022/10/26 06:05:27;;;;;;;;;;;;;;;12.03;100.00;98216.25;5049014;28;19960;-67
2022/10/26 06:07:54;;;;;;;;;;;;;;;11.97;100.00;98225.34;5056991;28;19926;-67
2022/10/26 06:10:21;;;;;;;;;;;;;;;12.06;100.00;98234.47;5060890;28;19960;-66
2022/10/26 06:12:47;;;;;;;;;;;;;;;12.07;100.00;98228.06;5060231;28;19925;-66
2022/10/26 06:15:16;;;;;;;;;;;;;;;12.14;100.00;98231.25;5057435;28;19980;-67
2022/10/26 06:17:52;;;;;;;;;;;;;;;12.25;100.00;98240.94;5056525;28;20016;-67
2022/10/26 06:20:26;;;;;;;;;;;;;;;12.30;100.00;98244.44;5058845;28;20798;-67
2022/10/26 06:23:02;;;;;;;;;;;;;;;12.34;100.00;98245.50;5045702;28;19936;-67
2022/10/26 06:25:35;;;;;;;;;;;;;;;12.49;100.00;98236.69;5048673;28;20317;-68
2022/10/26 06:28:06;;;;;;;;;;;;;;;12.51;100.00;98255.16;5055146;28;19932;-67
2022/10/26 06:30:33;;;;;;;;;;;;;;;12.58;100.00;98267.22;5059676;28;19929;-68
2022/10/26 06:33:00;;;;;;;;;;;;;;;12.65;100.00;98272.31;5059468;28;19988;-67
2022/10/26 06:35:35;;;;;;;;;;;;;;;12.71;100.00;98273.94;5059228;28;19942;-68
2022/10/26 06:38:03;;;;;;;;;;;;;;;12.75;100.00;98275.03;5058734;28;20454;-67
2022/10/26 06:40:30;;;;;;;;;;;;;;;12.77;100.00;98262.16;5055918;28;20052;-67
2022/10/26 06:42:57;;;;;;;;;;;;;;;12.79;100.00;98262.66;5055777;28;20036;-68
2022/10/26 06:45:24;;;;;;;;;;;;;;;12.59;100.00;98262.69;5058779;28;19977;-67
2022/10/26 06:47:52;;;;;;;;;;;;;;;12.56;100.00;98264.03;5058904;28;19992;-66
2022/10/26 06:50:25;;;;;;;;;;;;;;;12.50;100.00;98249.00;5059449;28;19995;-67
2022/10/26 06:52:57;;;;;;;;;;;;;;;12.47;100.00;98246.06;5045811;28;19997;-67
2022/10/26 06:55:25;;;;;;;;;;;;;;;12.29;100.00;98231.28;5055719;28;19992;-68
2022/10/26 06:57:52;;;;;;;;;;;;;;;12.19;100.00;98236.66;5055896;28;19925;-67
2022/10/26 07:00:20;;;;;;;;;;;;;;;12.16;100.00;98232.59;5058363;28;19992;-67
2022/10/26 07:02:46;;;;;;;;;;;;;;;12.14;100.00;98236.63;5058801;28;20020;-67
2022/10/26 07:05:13;;;;;;;;;;;;;;;12.10;100.00;98227.53;5056703;28;19946;-67
2022/10/26 07:07:41;;;;;;;;;;;;;;;12.19;100.00;98226.72;5055279;28;19925;-66
2022/10/26 07:10:09;;;;;;;;;;;;;;;12.15;100.00;98219.50;5056809;28;19981;-67
2022/10/26 07:12:36;;;;;;;;;;;;;;;12.18;100.00;98224.31;5059070;28;20085;-67
2022/10/26 07:15:02;;;;;;;;;;;;;;;12.21;100.00;98240.66;5058506;28;19925;-67
2022/10/26 07:17:29;;;;;;;;;;;;;;;12.25;100.00;98240.94;5055306;28;19993;-67
2022/10/26 07:19:55;;;;;;;;;;;;;;;12.26;100.00;98245.22;5055105;28;19929;-67
2022/10/26 07:22:22;;;;;;;;;;;;;;;12.26;100.00;98243.34;5052647;28;19925;-67
2022/10/26 07:24:50;;;;;;;;;;;;;;;12.28;100.00;98243.09;5047705;28;19973;-67
2022/10/26 07:27:19;;;;;;;;;;;;;;;12.19;100.00;98247.34;5056057;28;19925;-67
2022/10/26 07:29:45;;;;;;;;;;;;;;;12.22;100.00;98246.81;5055256;28;19929;-66
2022/10/26 07:32:11;;;;;;;;;;;;;;;12.24;100.00;98253.53;5056673;28;19975;-66
2022/10/26 07:34:37;;;;;;;;;;;;;;;12.31;100.00;98262.13;5058347;28;19960;-66
2022/10/26 07:37:04;;;;;;;;;;;;;;;12.17;100.00;98241.44;5057549;28;19988;-67
2022/10/26 07:39:31;;;;;;;;;;;;;;;12.20;100.00;98246.28;5055156;28;20422;-66
2022/10/26 07:41:57;;;;;;;;;;;;;;;12.22;100.00;98254.88;5055030;28;19947;-66
2022/10/26 07:44:25;;;;;;;;;;;;;;;12.29;100.00;98255.38;5058570;28;20405;-67
2022/10/26 07:46:51;;;;;;;;;;;;;;;12.35;100.00;98281.09;5057367;28;19971;-66
2022/10/26 07:49:18;;;;;;;;;;;;;;;12.49;100.00;98292.94;5055701;28;19952;-67
2022/10/26 07:51:44;;;;;;;;;;;;;;;12.59;100.00;98292.16;5054809;28;19933;-68
2022/10/26 07:54:10;;;;;;;;;;;;;;;12.62;100.00;98288.94;5048235;28;19932;-67
2022/10/26 07:56:37;;;;;;;;;;;;;;;12.49;100.00;98284.09;5057890;28;19989;-67
2022/10/26 07:59:03;;;;;;;;;;;;;;;12.49;100.00;98292.94;5057425;28;19955;-66
2022/10/26 08:01:31;;;;;;;;;;;;;;;12.57;100.00;98295.06;5054614;28;19925;-68
2022/10/26 08:03:57;;;;;;;;;;;;;;;12.56;100.00;98281.97;5054716;28;19925;-67
2022/10/26 08:06:24;;;;;;;;;;;;;;;12.62;100.00;98289.75;5058043;28;19956;-67
2022/10/26 08:08:51;;;;;;;;;;;;;;;12.59;100.00;98290.28;5058920;28;19959;-66
2022/10/26 08:11:18;;;;;;;;;;;;;;;12.61;100.00;98287.31;5056196;28;19925;-67
2022/10/26 08:13:44;;;;;;;;;;;;;;;12.54;100.00;98298.28;5054955;28;20008;-67
2022/10/26 08:16:11;;;;;;;;;;;;;;;12.56;100.00;98308.75;5056258;28;19993;-66
2022/10/26 08:18:38;;;;;;;;;;;;;;;12.57;100.00;98299.63;5058410;28;20365;-66
2022/10/26 08:21:06;;;;;;;;;;;;;;;12.67;100.00;98303.13;5056381;28;19990;-66
2022/10/26 08:23:33;;;;;;;;;;;;;;;12.64;100.00;98298.31;5051269;28;19980;-66
2022/10/26 08:26:00;;;;;;;;;;;;;;;12.72;100.00;98295.09;5057883;28;19925;-67
2022/10/26 08:28:27;;;;;;;;;;;;;;;12.72;100.00;98299.69;5054510;28;19925;-66
2022/10/26 08:30:53;;;;;;;;;;;;;;;12.78;100.00;98294.03;5054466;28;19960;-67
2022/10/26 08:33:19;;;;;;;;;;;;;;;12.80;100.00;98289.22;5057069;28;19929;-67
2022/10/26 08:35:47;;;;;;;;;;;;;;;12.89;100.00;98300.19;5059364;28;19929;-66
2022/10/26 08:38:13;;;;;;;;;;;;;;;12.91;100.00;98298.84;5059189;28;20000;-67
2022/10/26 08:40:41;;;;;;;;;;;;;;;12.95;100.00;98305.31;5057671;28;19980;-66
2022/10/26 08:43:13;;;;;;;;;;;;;;;12.95;100.00;98304.50;5058784;28;19996;-66
2022/10/26 08:45:41;;;;;;;;;;;;;;;12.94;100.00;98302.88;5060647;28;19924;-67
2022/10/26 08:48:12;;;;;;;;;;;;;;;12.92;100.00;98311.19;5059713;28;19992;-66
2022/10/26 08:50:42;;;;;;;;;;;;;;;12.99;100.00;98303.69;5057232;28;19965;-67
2022/10/26 08:53:14;;;;;;;;;;;;;;;12.99;100.00;98309.06;5049580;28;19948;-66
2022/10/26 08:55:44;;;;;;;;;;;;;;;13.07;100.00;98309.56;5057322;28;19961;-66
2022/10/26 08:58:14;;;;;;;;;;;;;;;13.11;100.00;98303.44;5058973;28;20024;-67
2022/10/26 09:00:40;;;;;;;;;;;;;;;13.11;100.00;98308.00;5059937;28;19987;-67
2022/10/26 09:03:10;;;;;;;;;;;;;;;13.03;100.00;98308.53;5059917;28;19921;-67
2022/10/26 09:05:40;;;;;;;;;;;;;;;13.10;100.00;98312.56;5057375;28;20016;-67
2022/10/26 09:08:11;;;;;;;;;;;;;;;13.09;100.00;98312.84;5058092;28;19931;-67
2022/10/26 09:10:40;;;;;;;;;;;;;;;13.11;100.00;98305.31;5059268;28;19935;-67
2022/10/26 09:13:13;;;;;;;;;;;;;;;13.17;100.00;98306.91;5059103;28;19993;-66
2022/10/26 09:15:45;;;;;;;;;;;;;;;13.11;100.00;98302.63;5057063;28;19925;-69
2022/10/26 09:18:16;;;;;;;;;;;;;;;13.10;100.00;98303.69;5058655;28;20590;-66
2022/10/26 09:20:57;;;;;;;;;;;;;;;13.11;100.00;98298.09;5060505;28;19992;-66
2022/10/26 09:23:40;;;;;;;;;;;;;;;13.19;100.00;98294.03;5054114;28;19931;-67
2022/10/26 09:26:13;;;;;;;;;;;;;;;13.23;100.00;98306.66;5058881;28;19992;-67
2022/10/26 09:28:40;;;;;;;;;;;;;;;13.26;100.00;98305.31;5056918;28;19932;-67
2022/10/26 09:31:13;;;;;;;;;;;;;;;13.24;100.00;98310.16;5057735;28;20001;-68
2022/10/26 09:33:40;;;;;;;;;;;;;;;13.24;100.00;98310.16;5060257;28;19992;-69
2022/10/26 09:36:08;;;;;;;;;;;;;;;13.26;100.00;98308.00;5058871;28;19921;-67
2022/10/26 09:38:36;;;;;;;;;;;;;;;13.29;100.00;98310.13;5056792;28;19972;-66
2022/10/26 09:41:06;;;;;;;;;;;;;;;13.28;100.00;98314.69;5058762;28;19989;-67
2022/10/26 09:43:39;;;;;;;;;;;;;;;13.28;100.00;98308.50;5064953;28;19951;-67
2022/10/26 09:46:05;;;;;;;;;;;;;;;13.31;100.00;98322.19;5063469;28;20004;-67
2022/10/26 09:48:35;;;;;;;;;;;;;;;13.33;100.00;98325.44;5060753;28;19996;-66
2022/10/26 09:51:02;;;;;;;;;;;;;;;13.38;100.00;98324.59;5061432;28;19952;-66
2022/10/26 09:53:28;;;;;;;;;;;;;;;13.33;100.00;98320.06;5052394;28;19997;-66
2022/10/26 09:55:59;;;;;;;;;;;;;;;13.42;100.00;98325.69;5060003;28;19988;-67
2022/10/26 09:58:28;;;;;;;;;;;;;;;13.42;100.00;98331.03;5050141;28;19967;-67
2022/10/26 10:00:55;;;;;;;;;;;;;;;13.48;100.00;98324.59;5061764;28;19971;-66
2022/10/26 10:03:25;;;;;;;;;;;;;;;13.51;100.00;98326.72;5065482;28;19972;-68
2022/10/26 10:05:52;;;;;;;;;;;;;;;13.56;100.00;98336.63;5062109;28;20367;-67
2022/10/26 10:08:20;;;;;;;;;;;;;;;13.50;100.00;98325.91;5057848;28;19988;-66
2022/10/26 10:10:53;;;;;;;;;;;;;;;13.62;100.00;98333.66;5057767;28;19967;-67
2022/10/26 10:13:21;;;;;;;;;;;;;;;13.66;100.00;98332.06;5059479;28;19971;-68
2022/10/26 10:15:52;;;;;;;;;;;;;;;13.81;100.00;98331.22;5059956;28;19964;-66
2022/10/26 10:18:20;;;;;;;;;;;;;;;13.84;100.00;98336.84;5057131;28;19924;-66
2022/10/26 10:20:51;;;;;;;;;;;;;;;13.95;100.00;98338.44;5056268;28;19925;-66
2022/10/26 10:23:25;;;;;;;;;;;;;;;14.00;100.00;98333.03;5058346;28;20019;-66
2022/10/26 10:25:57;;;;;;;;;;;;;;;14.01;100.00;98328.47;5059979;28;19960;-67
2022/10/26 10:28:24;;;;;;;;;;;;;;;14.05;100.00;98330.31;5056146;28;19980;-67
2022/10/26 10:30:56;;;;;;;;;;;;;;;14.05;100.00;98335.69;5056191;28;20004;-67
2022/10/26 10:33:31;;;;;;;;;;;;;;;14.08;100.00;98337.81;5059142;28;19969;-67
2022/10/26 10:35:57;;;;;;;;;;;;;;;14.10;100.00;98328.69;5059565;28;19992;-67
2022/10/26 10:38:24;;;;;;;;;;;;;;;14.00;100.00;98327.66;5056207;28;20392;-67
2022/10/26 10:40:52;;;;;;;;;;;;;;;13.97;100.00;98327.41;5056749;28;19932;-67
2022/10/26 10:43:19;;;;;;;;;;;;;;;14.07;100.00;98322.00;5058764;28;19960;-67
2022/10/26 10:45:47;;;;;;;;;;;;;;;14.10;100.00;98326.81;5059452;28;19929;-67
2022/10/26 10:48:14;;;;;;;;;;;;;;;14.13;100.00;98333.50;5057272;28;19950;-67
2022/10/26 10:50:51;;;;;;;;;;;;;;;14.13;100.00;98334.31;5056023;28;19985;-66
2022/10/26 10:53:21;;;;;;;;;;;;;;;14.14;100.00;98332.44;5047890;28;19926;-67
2022/10/26 10:55:58;;;;;;;;;;;;;;;14.14;100.00;98335.13;5055621;28;19925;-67
2022/10/26 10:58:30;;;;;;;;;;;;;;;14.15;100.00;98347.47;5059130;28;19993;-67
2022/10/26 11:00:57;;;;;;;;;;;;;;;14.15;100.00;98331.34;5058982;28;19984;-67
2022/10/26 11:03:38;;;;;;;;;;;;;;;14.19;100.00;98335.91;5055433;28;19947;-67
2022/10/26 11:06:11;;;;;;;;;;;;;;;14.26;100.00;98338.28;5055645;28;20027;-66
2022/10/26 11:08:40;;;;;;;;;;;;;;;14.27;100.00;98347.94;5058579;28;19924;-67
2022/10/26 11:11:10;;;;;;;;;;;;;;;14.38;100.00;98338.81;5057256;28;19975;-67
2022/10/26 11:13:38;;;;;;;;;;;;;;;14.35;100.00;98340.16;5053933;28;19931;-67
2022/10/26 11:16:07;;;;;;;;;;;;;;;14.43;100.00;98347.63;5054764;28;19996;-67
2022/10/26 11:18:36;;;;;;;;;;;;;;;14.40;100.00;98342.81;5058656;28;20013;-67
2022/10/26 11:21:05;;;;;;;;;;;;;;;14.49;100.00;98340.34;5056973;28;19956;-67
2022/10/26 11:23:36;;;;;;;;;;;;;;;14.49;100.00;98338.47;5051327;28;19936;-67
2022/10/26 11:26:07;;;;;;;;;;;;;;;14.52;100.00;98334.41;5058267;28;19925;-68
2022/10/26 11:28:39;;;;;;;;;;;;;;;14.57;100.00;98339.78;5054684;28;21464;-67
2022/10/26 11:31:07;;;;;;;;;;;;;;;14.66;100.00;98350.75;5055688;28;19985;-67
2022/10/26 11:33:36;;;;;;;;;;;;;;;14.65;100.00;98349.94;5058198;28;19999;-66
2022/10/26 11:36:05;;;;;;;;;;;;;;;14.66;100.00;98348.84;5057589;28;19988;-67
2022/10/26 11:38:34;;;;;;;;;;;;;;;14.71;100.00;98353.38;5055485;28;19973;-67
2022/10/26 11:41:03;;;;;;;;;;;;;;;14.57;100.00;98358.59;5055491;28;19967;-67
2022/10/26 11:43:33;;;;;;;;;;;;;;;14.64;100.00;98352.91;5058677;28;19971;-66
2022/10/26 11:46:03;;;;;;;;;;;;;;;14.65;100.00;98358.00;5058146;28;19925;-67
2022/10/26 11:48:33;;;;;;;;;;;;;;;14.70;100.00;98357.94;5043132;28;19989;-67
2022/10/26 11:51:00;;;;;;;;;;;;;;;14.79;100.00;98369.72;5051541;28;19968;-67
2022/10/26 11:53:28;;;;;;;;;;;;;;;14.80;100.00;98368.66;5046615;28;19956;-67
2022/10/26 11:55:55;;;;;;;;;;;;;;;14.82;100.00;98371.88;5054878;28;20023;-67
2022/10/26 11:58:24;;;;;;;;;;;;;;;14.87;100.00;98374.53;5057584;28;20068;-66
2022/10/26 12:00:53;;;;;;;;;;;;;;;14.95;100.00;98365.03;5058100;28;19924;-66
2022/10/26 12:03:23;;;;;;;;;;;;;;;14.94;100.00;98371.53;5055300;28;19976;-67
2022/10/26 12:05:50;;;;;;;;;;;;;;;14.88;100.00;98369.97;5054626;28;19925;-66
2022/10/26 12:08:22;;;;;;;;;;;;;;;14.89;100.00;98383.09;5056945;28;19951;-66
2022/10/26 12:10:50;;;;;;;;;;;;;;;14.95;100.00;98381.19;5059961;28;19929;-67
2022/10/26 12:13:21;;;;;;;;;;;;;;;15.03;100.00;98392.19;5059308;28;19997;-67
2022/10/26 12:15:52;;;;;;;;;;;;;;;15.04;100.00;98385.69;5057815;28;19997;-67
2022/10/26 12:18:24;;;;;;;;;;;;;;;15.07;100.00;98385.13;5060451;28;19999;-67
2022/10/26 12:21:01;;;;;;;;;;;;;;;15.03;100.00;98383.28;5061573;28;19927;-67
2022/10/26 12:23:28;;;;;;;;;;;;;;;15.12;100.00;98395.88;5046090;28;19980;-66
2022/10/26 12:26:28;;;;;;;;;;;;;;;15.13;100.00;98397.47;5061239;28;20388;-67
2022/10/26 12:29:10;;;;;;;;;;;;;;;15.18;100.00;98393.13;5053759;28;19989;-66
2022/10/26 12:31:43;;;;;;;;;;;;;;;15.27;100.00;98384.19;5050889;28;19971;-67
2022/10/26 12:34:11;;;;;;;;;;;;;;;15.28;100.00;98393.06;5058882;28;19921;-67
2022/10/26 12:36:48;;;;;;;;;;;;;;;15.27;100.00;98389.56;5061362;28;20254;-68
2022/10/26 12:39:29;;;;;;;;;;;;;;;15.27;100.00;98402.22;5059038;28;19946;-67
2022/10/26 12:41:57;;;;;;;;;;;;;;;15.32;100.00;98394.91;5057733;28;19993;-66
2022/10/26 12:44:39;;;;;;;;;;;;;;;15.31;100.00;98396.00;5060843;28;19935;-67